Time;durP1;ratioP1;P1;durP2;ratioP2;P2;SDS_P1;SDS_P2;PMS_P1;PMS_P2;Temp;Humidity;BMP_temperature;BMP_pressure;BME280_temperature;BME280_humidity;BME280_pressure;Samples;Min_cycle;Max_cycle;Signal;HPM_P1;HPM_P2
2021/06/15 00:00:33;;;;;;;4.53;3.67;;;;;;;;;;5076471;28;20029;-60
2021/06/15 00:02:59;;;;;;;4.38;3.97;;;;;;;;;;5076367;28;20494;-60
2021/06/15 00:05:24;;;;;;;5.95;3.83;;;;;;;;;;5076609;28;20043;-60
2021/06/15 00:07:50;;;;;;;3.67;3.38;;;;;;;;;;5075168;28;20033;-60
2021/06/15 00:10:20;;;;;;;3.60;3.30;;;;;;;;;;5076280;28;20021;-60
2021/06/15 00:12:46;;;;;;;3.60;3.17;;;;;;;;;;5076520;28;20398;-58
2021/06/15 00:15:12;;;;;;;3.88;3.40;;;;;;;;;;5076338;28;20028;-59
2021/06/15 00:17:37;;;;;;;3.70;3.40;;;;;;;;;;5076430;28;20529;-58
2021/06/15 00:20:03;;;;;;;4.93;3.47;;;;;;;;;;5076386;28;20109;-59
2021/06/15 00:22:29;;;;;;;4.80;3.30;;;;;;;;;;5076221;28;20064;-58
2021/06/15 00:24:54;;;;;;;3.92;3.58;;;;;;;;;;5076235;28;20056;-59
2021/06/15 00:27:20;;;;;;;7.40;3.58;;;;;;;;;;5076230;28;20531;-59
2021/06/15 00:29:46;;;;;;;3.67;3.35;;;;;;;;;;5076244;28;20068;-59
2021/06/15 00:32:11;;;;;;;4.38;3.97;;;;;;;;;;5076224;28;20016;-58
2021/06/15 00:34:37;;;;;;;6.30;4.53;;;;;;;;;;5076107;28;20031;-59
2021/06/15 00:37:02;;;;;;;5.40;3.75;;;;;;;;;;5076127;28;20017;-59
2021/06/15 00:39:29;;;;;;;5.57;3.90;;;;;;;;;;5074828;28;20033;-58
2021/06/15 00:41:54;;;;;;;5.78;3.85;;;;;;;;;;5075180;28;20025;-59
2021/06/15 00:44:20;;;;;;;5.97;4.40;;;;;;;;;;5074761;28;20032;-59
2021/06/15 00:46:45;;;;;;;4.78;4.00;;;;;;;;;;5075919;28;20020;-59
2021/06/15 00:49:13;;;;;;;4.28;3.88;;;;;;;;;;5075922;28;20020;-58
2021/06/15 00:51:39;;;;;;;4.85;3.75;;;;;;;;;;5074166;28;20012;-59
2021/06/15 00:54:05;;;;;;;5.97;3.80;;;;;;;;;;5075308;28;20107;-59
2021/06/15 00:56:30;;;;;;;3.92;3.55;;;;;;;;;;5075788;28;20104;-59
2021/06/15 00:58:56;;;;;;;5.63;3.63;;;;;;;;;;5075553;28;20454;-59
2021/06/15 01:01:23;;;;;;;4.13;3.15;;;;;;;;;;5074336;28;20030;-59
2021/06/15 01:03:50;;;;;;;5.22;3.55;;;;;;;;;;5073746;28;20040;-59
2021/06/15 01:06:21;;;;;;;4.35;3.78;;;;;;;;;;5075349;28;20386;-59
2021/06/15 01:08:56;;;;;;;4.43;4.00;;;;;;;;;;5074169;28;20031;-59
2021/06/15 01:11:39;;;;;;;4.38;3.90;;;;;;;;;;5075484;28;20025;-59
2021/06/15 01:14:11;;;;;;;4.10;3.70;;;;;;;;;;5075639;28;20028;-59
2021/06/15 01:16:41;;;;;;;5.50;4.05;;;;;;;;;;5074173;28;20071;-59
2021/06/15 01:19:25;;;;;;;4.85;4.35;;;;;;;;;;5074122;28;20085;-59
2021/06/15 01:22:04;;;;;;;5.22;4.05;;;;;;;;;;5073990;28;20036;-59
2021/06/15 01:24:59;;;;;;;5.10;3.90;;;;;;;;;;5073929;28;20052;-59
2021/06/15 01:27:49;;;;;;;4.97;4.10;;;;;;;;;;5071543;28;20092;-59
2021/06/15 01:30:16;;;;;;;5.45;3.85;;;;;;;;;;5074103;28;20025;-59
2021/06/15 01:32:55;;;;;;;5.60;4.20;;;;;;;;;;5073845;28;20020;-59
2021/06/15 01:35:24;;;;;;;7.70;5.70;;;;;;;;;;5073887;28;20056;-59
2021/06/15 01:37:55;;;;;;;6.80;4.68;;;;;;;;;;5057343;28;20451;-59
2021/06/15 01:40:26;;;;;;;6.57;4.40;;;;;;;;;;5073657;28;20048;-59
2021/06/15 01:42:58;;;;;;;6.35;5.05;;;;;;;;;;5073680;28;20032;-59
2021/06/15 01:45:34;;;;;;;9.70;5.72;;;;;;;;;;5073345;28;20043;-59
2021/06/15 01:48:20;;;;;;;7.25;5.53;;;;;;;;;;5073240;28;20039;-60
2021/06/15 01:50:47;;;;;;;7.28;5.10;;;;;;;;;;5073470;28;20044;-59
2021/06/15 01:53:17;;;;;;;6.63;4.73;;;;;;;;;;5073331;28;20017;-59
2021/06/15 01:55:45;;;;;;;8.65;4.82;;;;;;;;;;5073202;28;20263;-60
2021/06/15 01:58:13;;;;;;;7.78;4.53;;;;;;;;;;5073206;28;20024;-59
2021/06/15 02:00:40;;;;;;;6.07;4.38;;;;;;;;;;5056796;28;20028;-61
2021/06/15 02:03:06;;;;;;;6.95;5.28;;;;;;;;;;5072470;28;20039;-61
2021/06/15 02:05:37;;;;;;;7.20;5.25;;;;;;;;;;5106139;28;20040;-60
2021/06/15 02:08:04;;;;;;;5.93;4.93;;;;;;;;;;5056480;28;20017;-60
2021/06/15 02:10:34;;;;;;;5.95;4.55;;;;;;;;;;5072866;28;20066;-61
2021/06/15 02:13:37;;;;;;;5.47;4.47;;;;;;;;;;5073253;28;20032;-60
2021/06/15 02:16:27;;;;;;;5.82;4.53;;;;;;;;;;5072921;28;20024;-60
2021/06/15 02:19:16;;;;;;;8.18;5.22;;;;;;;;;;5073943;28;20039;-60
2021/06/15 02:21:54;;;;;;;4.93;4.43;;;;;;;;;;5072680;28;20024;-60
2021/06/15 02:24:26;;;;;;;4.20;3.75;;;;;;;;;;5072892;28;20029;-60
2021/06/15 02:26:52;;;;;;;4.05;3.65;;;;;;;;;;5072886;28;20424;-60
2021/06/15 02:29:18;;;;;;;4.78;3.75;;;;;;;;;;5072801;28;20056;-61
2021/06/15 02:31:56;;;;;;;4.43;4.03;;;;;;;;;;5072775;28;20120;-60
2021/06/15 02:34:24;;;;;;;4.88;3.60;;;;;;;;;;5072695;28;20028;-61
2021/06/15 02:36:55;;;;;;;4.20;3.60;;;;;;;;;;5074045;28;20362;-60
2021/06/15 02:39:33;;;;;;;3.63;3.33;;;;;;;;;;5072744;28;20021;-60
2021/06/15 02:42:00;;;;;;;4.07;3.47;;;;;;;;;;5055793;28;20033;-60
2021/06/15 02:44:33;;;;;;;4.05;3.42;;;;;;;;;;5072396;28;20166;-60
2021/06/15 02:47:00;;;;;;;3.53;3.17;;;;;;;;;;5072535;28;20020;-60
2021/06/15 02:49:30;;;;;;;4.28;3.58;;;;;;;;;;5072372;28;20017;-60
2021/06/15 02:52:02;;;;;;;3.80;3.50;;;;;;;;;;5055644;28;20119;-60
2021/06/15 02:54:30;;;;;;;4.15;3.05;;;;;;;;;;5071947;28;20501;-60
2021/06/15 02:56:57;;;;;;;3.88;3.30;;;;;;;;;;5072410;28;20024;-60
2021/06/15 02:59:23;;;;;;;3.83;3.53;;;;;;;;;;5072449;28;20043;-60
2021/06/15 03:01:51;;;;;;;3.45;3.17;;;;;;;;;;5073369;28;20024;-60
2021/06/15 03:04:21;;;;;;;4.03;3.15;;;;;;;;;;5072102;28;20124;-60
2021/06/15 03:06:47;;;;;;;3.95;3.58;;;;;;;;;;5073341;28;20036;-58
2021/06/15 03:09:14;;;;;;;4.72;3.63;;;;;;;;;;5072021;28;20028;-58
2021/06/15 03:11:59;;;;;;;4.40;3.53;;;;;;;;;;5071903;28;20378;-57
2021/06/15 03:14:28;;;;;;;3.47;3.17;;;;;;;;;;5072100;28;20131;-58
2021/06/15 03:16:56;;;;;;;4.20;2.92;;;;;;;;;;5073037;28;20027;-57
2021/06/15 03:19:23;;;;;;;3.28;2.97;;;;;;;;;;5071978;28;20024;-58
2021/06/15 03:22:09;;;;;;;4.00;3.08;;;;;;;;;;5071929;28;20112;-57
2021/06/15 03:24:39;;;;;;;2.80;2.60;;;;;;;;;;5072422;28;20029;-58
2021/06/15 03:27:06;;;;;;;3.70;3.22;;;;;;;;;;5073219;28;20029;-57
2021/06/15 03:29:39;;;;;;;5.60;3.58;;;;;;;;;;5105601;28;20548;-58
2021/06/15 03:32:07;;;;;;;4.30;3.90;;;;;;;;;;5072035;28;20109;-58
2021/06/15 03:34:35;;;;;;;5.45;3.53;;;;;;;;;;5072059;28;20034;-57
2021/06/15 03:37:02;;;;;;;4.82;3.88;;;;;;;;;;5055266;28;20039;-58
2021/06/15 03:39:33;;;;;;;4.10;3.75;;;;;;;;;;5073151;28;20030;-58
2021/06/15 03:42:01;;;;;;;6.50;4.20;;;;;;;;;;5073105;28;20029;-59
2021/06/15 03:44:27;;;;;;;4.63;4.18;;;;;;;;;;5072969;28;20110;-59
2021/06/15 03:46:53;;;;;;;4.53;3.92;;;;;;;;;;5072561;28;20352;-60
2021/06/15 03:49:21;;;;;;;4.75;3.72;;;;;;;;;;5072522;28;20027;-60
2021/06/15 03:51:49;;;;;;;5.40;4.32;;;;;;;;;;5072533;28;20016;-60
2021/06/15 03:54:14;;;;;;;4.18;3.78;;;;;;;;;;5072353;28;20430;-60
2021/06/15 03:56:47;;;;;;;6.57;4.30;;;;;;;;;;5072605;28;20641;-60
2021/06/15 03:59:17;;;;;;;5.35;4.43;;;;;;;;;;5072786;28;20100;-60
2021/06/15 04:01:43;;;;;;;3.90;3.50;;;;;;;;;;5072818;28;20044;-60
2021/06/15 04:04:10;;;;;;;4.47;3.58;;;;;;;;;;5072661;28;20041;-60
2021/06/15 04:06:38;;;;;;;7.57;3.65;;;;;;;;;;5072910;28;20036;-60
2021/06/15 04:09:06;;;;;;;4.65;3.72;;;;;;;;;;5072605;28;20031;-60
2021/06/15 04:11:33;;;;;;;6.10;4.00;;;;;;;;;;5072335;28;20012;-60
2021/06/15 04:13:59;;;;;;;5.25;4.38;;;;;;;;;;5072888;28;20071;-60
2021/06/15 04:16:25;;;;;;;6.78;3.72;;;;;;;;;;5072442;28;20031;-60
2021/06/15 04:18:52;;;;;;;4.93;3.70;;;;;;;;;;5071407;28;20033;-60
2021/06/15 04:21:19;;;;;;;3.42;3.13;;;;;;;;;;5071816;28;20395;-60
2021/06/15 04:23:47;;;;;;;3.92;3.45;;;;;;;;;;5071504;28;20036;-60
2021/06/15 04:26:14;;;;;;;3.90;3.47;;;;;;;;;;5071484;28;20023;-60
2021/06/15 04:28:40;;;;;;;4.72;3.70;;;;;;;;;;5074160;28;20089;-60
2021/06/15 04:31:06;;;;;;;5.55;3.83;;;;;;;;;;5075009;28;20021;-60
2021/06/15 04:33:32;;;;;;;4.15;3.30;;;;;;;;;;5076122;28;20035;-60
2021/06/15 04:35:59;;;;;;;4.75;3.75;;;;;;;;;;5076078;28;20103;-60
2021/06/15 04:38:43;;;;;;;3.72;3.42;;;;;;;;;;5075833;28;20020;-60
2021/06/15 04:41:13;;;;;;;6.32;3.75;;;;;;;;;;5075803;28;20115;-60
2021/06/15 04:44:04;;;;;;;3.78;3.40;;;;;;;;;;5076350;28;20036;-60
2021/06/15 04:46:39;;;;;;;3.35;3.15;;;;;;;;;;5074127;28;20041;-60
2021/06/15 04:49:10;;;;;;;4.30;3.50;;;;;;;;;;5075929;28;20021;-60
2021/06/15 04:51:35;;;;;;;;;;;;;;;;;;5076282;28;20115;-60
2021/06/15 04:54:01;;;;;;;5.60;3.25;;;;;;;;;;5075757;28;19948;-60
2021/06/15 04:56:28;;;;;;;4.32;3.65;;;;;;;;;;5075683;28;20079;-60
2021/06/15 04:58:53;;;;;;;4.70;3.78;;;;;;;;;;5075708;28;20387;-60
2021/06/15 05:01:20;;;;;;;4.78;3.65;;;;;;;;;;5075655;28;20036;-60
2021/06/15 05:03:45;;;;;;;4.18;3.40;;;;;;;;;;5073967;28;20091;-60
2021/06/15 05:06:12;;;;;;;9.30;4.07;;;;;;;;;;5075365;28;20536;-60
2021/06/15 05:08:40;;;;;;;4.57;4.03;;;;;;;;;;5074047;28;20031;-60
2021/06/15 05:11:06;;;;;;;5.60;3.95;;;;;;;;;;5075362;28;20021;-60
2021/06/15 05:13:32;;;;;;;6.57;4.13;;;;;;;;;;5075464;28;20473;-60
2021/06/15 05:15:58;;;;;;;5.30;3.60;;;;;;;;;;5075315;28;20082;-60
2021/06/15 05:18:24;;;;;;;7.45;4.68;;;;;;;;;;5075116;28;20020;-60
2021/06/15 05:20:50;;;;;;;7.97;4.20;;;;;;;;;;5074960;28;20426;-60
2021/06/15 05:23:19;;;;;;;6.18;4.03;;;;;;;;;;5074853;28;20016;-60
2021/06/15 05:25:46;;;;;;;5.38;4.28;;;;;;;;;;5075226;28;20028;-60
2021/06/15 05:28:11;;;;;;;7.00;4.30;;;;;;;;;;5075004;28;20023;-60
2021/06/15 05:30:37;;;;;;;5.78;3.85;;;;;;;;;;5075121;28;20103;-60
2021/06/15 05:33:03;;;;;;;4.47;4.00;;;;;;;;;;5075111;28;20074;-60
2021/06/15 05:35:28;;;;;;;4.65;3.70;;;;;;;;;;5074537;28;20487;-61
2021/06/15 05:37:54;;;;;;;6.90;4.15;;;;;;;;;;5075252;28;20021;-60
2021/06/15 05:40:20;;;;;;;5.78;4.20;;;;;;;;;;5074848;28;20029;-60
2021/06/15 05:42:45;;;;;;;6.30;3.95;;;;;;;;;;5074872;28;20036;-60
2021/06/15 05:45:11;;;;;;;8.25;3.90;;;;;;;;;;5074787;28;20581;-60
2021/06/15 05:47:37;;;;;;;4.57;3.47;;;;;;;;;;5074872;28;20032;-60
2021/06/15 05:50:04;;;;;;;4.53;3.92;;;;;;;;;;5074866;28;20391;-60
2021/06/15 05:52:30;;;;;;;5.13;3.88;;;;;;;;;;5074685;28;20028;-60
2021/06/15 05:54:58;;;;;;;4.93;3.70;;;;;;;;;;5074575;28;20035;-61
2021/06/15 05:57:24;;;;;;;4.72;3.28;;;;;;;;;;5074369;28;20099;-61
2021/06/15 05:59:49;;;;;;;5.45;3.53;;;;;;;;;;5074368;28;20055;-60
2021/06/15 06:02:14;;;;;;;3.78;3.25;;;;;;;;;;5074304;28;20016;-60
2021/06/15 06:09:59;;;;;;;5.20;3.60;;;;;;;;;;5074637;28;20099;-60
2021/06/15 06:12:24;;;;;;;3.78;3.42;;;;;;;;;;5073049;28;20052;-60
2021/06/15 06:14:51;;;;;;;4.43;3.80;;;;;;;;;;5072802;28;20031;-60
2021/06/15 06:17:16;;;;;;;4.65;4.18;;;;;;;;;;5073962;28;20025;-60
2021/06/15 06:19:43;;;;;;;4.90;3.38;;;;;;;;;;5074131;28;20115;-60
2021/06/15 06:22:08;;;;;;;4.05;3.53;;;;;;;;;;5074193;28;20107;-60
2021/06/15 06:24:34;;;;;;;5.07;3.53;;;;;;;;;;5073832;28;20530;-60
2021/06/15 06:26:59;;;;;;;4.40;3.53;;;;;;;;;;5073764;28;20378;-60
2021/06/15 06:29:25;;;;;;;6.97;3.83;;;;;;;;;;5073240;28;20145;-60
2021/06/15 06:31:50;;;;;;;4.72;3.88;;;;;;;;;;5074312;28;20017;-60
2021/06/15 06:34:16;;;;;;;4.82;3.67;;;;;;;;;;5073688;28;20036;-60
2021/06/15 06:36:42;;;;;;;4.15;2.78;;;;;;;;;;5074028;28;20024;-60
2021/06/15 06:39:08;;;;;;;3.67;3.13;;;;;;;;;;5073994;28;20069;-60
2021/06/15 06:41:33;;;;;;;6.20;3.45;;;;;;;;;;5073969;28;20099;-60
2021/06/15 06:43:59;;;;;;;3.55;3.03;;;;;;;;;;5073472;28;20062;-60
2021/06/15 06:46:25;;;;;;;3.05;2.78;;;;;;;;;;5072844;28;20441;-60
2021/06/15 06:48:50;;;;;;;5.15;3.05;;;;;;;;;;5071837;28;20495;-60
2021/06/15 06:51:15;;;;;;;5.22;3.13;;;;;;;;;;5072617;28;20021;-60
2021/06/15 06:53:41;;;;;;;5.30;2.88;;;;;;;;;;5072987;28;20032;-60
2021/06/15 06:56:07;;;;;;;3.83;2.63;;;;;;;;;;5073138;28;20375;-60
2021/06/15 06:58:32;;;;;;;4.50;2.65;;;;;;;;;;5072950;28;20050;-60
2021/06/15 07:00:58;;;;;;;2.70;2.50;;;;;;;;;;5073072;28;20031;-60
2021/06/15 07:03:24;;;;;;;3.08;1.98;;;;;;;;;;5072510;28;20041;-57
2021/06/15 07:05:49;;;;;;;3.90;2.65;;;;;;;;;;5073012;28;20029;-57
2021/06/15 07:08:15;;;;;;;3.30;2.28;;;;;;;;;;5073060;28;20012;-58
2021/06/15 07:10:40;;;;;;;3.72;2.15;;;;;;;;;;5073124;28;20039;-57
2021/06/15 07:13:06;;;;;;;4.20;2.50;;;;;;;;;;5073140;28;20067;-57
2021/06/15 07:15:31;;;;;;;2.45;2.00;;;;;;;;;;5073045;28;20020;-57
2021/06/15 07:17:57;;;;;;;2.10;1.90;;;;;;;;;;5072983;28;20035;-57
2021/06/15 07:20:22;;;;;;;6.38;2.10;;;;;;;;;;5073050;28;20032;-57
2021/06/15 07:22:48;;;;;;;2.85;1.75;;;;;;;;;;5072882;28;20494;-57
2021/06/15 07:25:14;;;;;;;3.13;2.33;;;;;;;;;;5072322;28;20032;-57
2021/06/15 07:27:39;;;;;;;3.38;1.85;;;;;;;;;;5071655;28;20055;-57
2021/06/15 07:30:05;;;;;;;2.20;1.95;;;;;;;;;;5072885;28;20021;-58
2021/06/15 07:32:31;;;;;;;4.80;2.10;;;;;;;;;;5072957;28;20378;-57
2021/06/15 07:34:56;;;;;;;3.78;1.70;;;;;;;;;;5072862;28;20032;-58
2021/06/15 07:37:22;;;;;;;2.30;1.70;;;;;;;;;;5072845;28;20032;-57
2021/06/15 07:39:48;;;;;;;1.85;1.60;;;;;;;;;;5073118;28;20490;-57
2021/06/15 07:42:13;;;;;;;2.30;1.75;;;;;;;;;;5073209;28;20028;-57
2021/06/15 07:44:39;;;;;;;2.65;1.90;;;;;;;;;;5072853;28;20437;-58
2021/06/15 07:47:04;;;;;;;3.05;1.92;;;;;;;;;;5072881;28;20019;-60
2021/06/15 07:49:30;;;;;;;4.72;1.80;;;;;;;;;;5072968;28;20025;-60
2021/06/15 07:51:56;;;;;;;4.00;1.70;;;;;;;;;;5073017;28;20458;-60
2021/06/15 07:54:22;;;;;;;2.15;1.88;;;;;;;;;;5072875;28;20031;-60
2021/06/15 07:56:47;;;;;;;2.28;1.70;;;;;;;;;;5072863;28;20063;-58
2021/06/15 07:59:12;;;;;;;2.55;1.77;;;;;;;;;;5072802;28;20028;-58
2021/06/15 08:01:38;;;;;;;3.13;2.00;;;;;;;;;;5072731;28;20024;-59
2021/06/15 08:04:04;;;;;;;2.38;1.75;;;;;;;;;;5075904;28;20487;-58
2021/06/15 08:06:29;;;;;;;2.15;1.95;;;;;;;;;;5076857;28;20032;-58
2021/06/15 08:08:54;;;;;;;3.15;1.73;;;;;;;;;;5076631;28;20047;-58
2021/06/15 08:11:20;;;;;;;2.08;1.88;;;;;;;;;;5076582;28;20020;-58
2021/06/15 08:13:46;;;;;;;2.50;2.03;;;;;;;;;;5076491;28;20031;-58
2021/06/15 08:16:12;;;;;;;2.55;2.00;;;;;;;;;;5076277;28;20089;-59
2021/06/15 08:18:38;;;;;;;2.17;1.98;;;;;;;;;;5076207;28;20040;-58
2021/06/15 08:21:03;;;;;;;2.05;1.85;;;;;;;;;;5075023;28;20347;-58
2021/06/15 08:23:29;;;;;;;4.03;2.08;;;;;;;;;;5076157;28;20033;-58
2021/06/15 08:25:55;;;;;;;4.90;2.08;;;;;;;;;;5076014;28;20012;-58
2021/06/15 08:28:20;;;;;;;2.40;2.03;;;;;;;;;;5075957;28;20504;-58
2021/06/15 08:30:46;;;;;;;3.08;1.92;;;;;;;;;;5076132;28;20108;-58
2021/06/15 08:33:12;;;;;;;3.70;2.08;;;;;;;;;;5076133;28;20394;-58
2021/06/15 08:35:38;;;;;;;3.70;2.30;;;;;;;;;;5075887;28;20017;-58
2021/06/15 08:38:04;;;;;;;3.35;1.90;;;;;;;;;;5075904;28;20032;-57
2021/06/15 08:40:29;;;;;;;2.35;2.15;;;;;;;;;;5076127;28;20108;-58
2021/06/15 08:42:55;;;;;;;3.63;2.15;;;;;;;;;;5076031;28;20029;-57
2021/06/15 08:45:21;;;;;;;2.78;2.00;;;;;;;;;;5075999;28;20354;-58
2021/06/15 08:47:48;;;;;;;2.20;2.00;;;;;;;;;;5075674;28;20025;-57
2021/06/15 08:50:14;;;;;;;2.28;2.08;;;;;;;;;;5075838;28;20095;-57
2021/06/15 08:52:40;;;;;;;2.13;1.95;;;;;;;;;;5075932;28;20047;-57
2021/06/15 08:55:07;;;;;;;2.05;1.85;;;;;;;;;;5075857;28;20454;-57
2021/06/15 08:57:36;;;;;;;3.45;1.88;;;;;;;;;;5075845;28;20059;-57
2021/06/15 09:00:06;;;;;;;2.88;1.98;;;;;;;;;;5075970;28;20020;-58
2021/06/15 09:02:31;;;;;;;3.55;2.15;;;;;;;;;;5075068;28;20024;-58
2021/06/15 09:04:56;;;;;;;2.40;2.17;;;;;;;;;;5075771;28;20082;-57
2021/06/15 09:07:22;;;;;;;2.58;2.00;;;;;;;;;;5075752;28;20036;-57
2021/06/15 09:09:49;;;;;;;3.17;1.67;;;;;;;;;;5075788;28;20028;-57
2021/06/15 09:12:15;;;;;;;3.38;2.38;;;;;;;;;;5074908;28;20095;-57
2021/06/15 09:14:51;;;;;;;3.28;2.10;;;;;;;;;;5074706;28;20082;-57
2021/06/15 09:17:26;;;;;;;2.20;2.00;;;;;;;;;;5075323;28;20024;-57
2021/06/15 09:19:52;;;;;;;2.25;2.05;;;;;;;;;;5075388;28;20033;-57
2021/06/15 09:22:29;;;;;;;3.30;2.00;;;;;;;;;;5075234;28;20028;-57
2021/06/15 09:24:55;;;;;;;3.03;2.30;;;;;;;;;;5075259;28;20127;-57
2021/06/15 09:27:27;;;;;;;3.15;1.80;;;;;;;;;;5075072;28;20477;-57
2021/06/15 09:29:54;;;;;;;2.28;2.08;;;;;;;;;;5075007;28;20028;-57
2021/06/15 09:32:19;;;;;;;4.97;2.35;;;;;;;;;;5075041;28;20020;-58
2021/06/15 09:34:46;;;;;;;2.22;2.03;;;;;;;;;;5075095;28;20167;-58
2021/06/15 09:37:12;;;;;;;5.57;2.40;;;;;;;;;;5075113;28;20021;-58
2021/06/15 09:39:38;;;;;;;2.63;2.25;;;;;;;;;;5074858;28;20031;-58
2021/06/15 09:42:04;;;;;;;3.10;2.15;;;;;;;;;;5074986;28;20466;-58
2021/06/15 09:44:30;;;;;;;3.28;2.00;;;;;;;;;;5074576;28;20028;-58
2021/06/15 09:47:04;;;;;;;1.88;1.67;;;;;;;;;;5074650;28;20074;-58
2021/06/15 09:49:33;;;;;;;4.75;1.63;;;;;;;;;;5073041;28;20020;-58
2021/06/15 09:52:34;;;;;;;4.18;2.15;;;;;;;;;;5074638;28;20024;-57
2021/06/15 09:55:01;;;;;;;2.20;1.67;;;;;;;;;;5032427;28;20029;-57
2021/06/15 09:57:26;;;;;;;4.32;1.88;;;;;;;;;;5066319;28;20474;-57
2021/06/15 10:00:10;;;;;;;1.75;1.65;;;;;;;;;;5074554;28;20047;-57
2021/06/15 10:02:48;;;;;;;3.13;1.95;;;;;;;;;;5074420;28;20189;-58
2021/06/15 10:05:25;;;;;;;2.28;2.08;;;;;;;;;;5074572;28;20097;-59
2021/06/15 10:07:51;;;;;;;2.47;1.98;;;;;;;;;;5074515;28;20028;-58
2021/06/15 10:10:17;;;;;;;2.55;2.00;;;;;;;;;;5074296;28;20031;-58
2021/06/15 10:12:43;;;;;;;1.73;1.63;;;;;;;;;;5072964;28;20028;-58
2021/06/15 10:15:09;;;;;;;2.60;1.77;;;;;;;;;;5074029;28;20149;-58
2021/06/15 10:17:37;;;;;;;4.72;1.90;;;;;;;;;;5074554;28;20031;-58
2021/06/15 10:20:02;;;;;;;2.17;1.98;;;;;;;;;;5074335;28;20097;-58
2021/06/15 10:22:28;;;;;;;2.42;2.22;;;;;;;;;;5073929;28;20075;-60
2021/06/15 10:24:53;;;;;;;2.85;2.00;;;;;;;;;;5073568;28;20024;-59
2021/06/15 10:27:20;;;;;;;2.10;1.90;;;;;;;;;;5073918;28;20054;-59
2021/06/15 10:29:52;;;;;;;3.08;2.13;;;;;;;;;;5072492;28;20095;-59
2021/06/15 10:32:19;;;;;;;2.65;2.00;;;;;;;;;;5073983;28;20041;-58
2021/06/15 10:34:48;;;;;;;2.03;1.80;;;;;;;;;;5073948;28;20482;-59
2021/06/15 10:37:32;;;;;;;3.15;2.00;;;;;;;;;;5072380;28;20403;-59
2021/06/15 10:39:59;;;;;;;4.35;2.10;;;;;;;;;;5073866;28;20025;-58
2021/06/15 10:42:24;;;;;;;1.83;1.73;;;;;;;;;;5073674;28;20017;-59
2021/06/15 10:45:26;;;;;;;2.38;1.75;;;;;;;;;;5072208;28;20039;-58
2021/06/15 10:48:06;;;;;;;2.92;2.05;;;;;;;;;;5014963;28;20488;-58
2021/06/15 10:50:32;;;;;;;;;;;;;;;;;;5069600;28;20078;-58
2021/06/15 10:52:59;;;;;;;3.88;2.10;;;;;;;;;;5073561;28;19908;-58
2021/06/15 10:55:41;;;;;;;2.55;2.33;;;;;;;;;;5072183;28;20475;-59
2021/06/15 10:58:06;;;;;;;2.22;2.03;;;;;;;;;;5073221;28;20095;-60
2021/06/15 11:00:41;;;;;;;2.25;2.03;;;;;;;;;;5073474;28;20150;-57
2021/06/15 11:03:16;;;;;;;5.30;2.17;;;;;;;;;;5073328;28;20040;-57
2021/06/15 11:05:42;;;;;;;2.40;2.20;;;;;;;;;;5073421;28;20048;-57
2021/06/15 11:08:22;;;;;;;3.50;2.38;;;;;;;;;;5073625;28;20214;-57
2021/06/15 11:10:50;;;;;;;4.47;2.33;;;;;;;;;;5073464;28;20475;-57
2021/06/15 11:13:15;;;;;;;2.38;1.83;;;;;;;;;;5073256;28;20527;-57
2021/06/15 11:15:57;;;;;;;3.10;1.95;;;;;;;;;;5073073;28;20121;-57
2021/06/15 11:18:23;;;;;;;2.83;2.30;;;;;;;;;;5073452;28;20057;-57
2021/06/15 11:20:48;;;;;;;3.67;2.20;;;;;;;;;;5073531;28;20099;-57
2021/06/15 11:23:14;;;;;;;2.45;2.22;;;;;;;;;;5072945;28;20071;-57
2021/06/15 11:25:46;;;;;;;2.75;2.30;;;;;;;;;;5073147;28;20020;-57
2021/06/15 11:28:44;;;;;;;2.55;2.35;;;;;;;;;;5073162;28;20021;-57
2021/06/15 11:31:19;;;;;;;3.42;2.20;;;;;;;;;;5049717;28;20047;-57
2021/06/15 11:34:03;;;;;;;2.22;2.00;;;;;;;;;;5072995;28;20159;-57
2021/06/15 11:36:55;;;;;;;2.92;2.20;;;;;;;;;;5074611;28;20359;-57
2021/06/15 11:39:26;;;;;;;3.28;2.47;;;;;;;;;;5074992;28;20119;-60
2021/06/15 11:42:06;;;;;;;5.25;2.80;;;;;;;;;;5077244;28;20463;-61
2021/06/15 11:44:58;;;;;;;3.40;2.67;;;;;;;;;;5072463;28;20032;-60
2021/06/15 11:47:24;;;;;;;2.30;2.10;;;;;;;;;;5077068;28;20111;-60
2021/06/15 11:50:08;;;;;;;2.90;2.30;;;;;;;;;;5077020;28;20414;-61
2021/06/15 11:52:34;;;;;;;2.58;1.95;;;;;;;;;;5075595;28;20100;-61
2021/06/15 11:55:00;;;;;;;2.92;1.95;;;;;;;;;;5077164;28;20107;-60
2021/06/15 11:57:26;;;;;;;5.47;2.67;;;;;;;;;;5076821;28;20056;-60
2021/06/15 11:59:52;;;;;;;3.55;2.17;;;;;;;;;;5076888;28;20025;-61
2021/06/15 12:02:18;;;;;;;5.13;2.13;;;;;;;;;;5077158;28;20033;-60
2021/06/15 12:05:04;;;;;;;5.63;1.92;;;;;;;;;;5076889;28;20041;-60
2021/06/15 12:07:31;;;;;;;1.42;1.30;;;;;;;;;;5069491;28;20044;-60
2021/06/15 12:10:10;;;;;;;4.05;2.60;;;;;;;;;;5077002;28;20016;-60
2021/06/15 12:12:54;;;;;;;3.28;2.70;;;;;;;;;;5076544;28;20108;-60
2021/06/15 12:15:38;;;;;;;4.82;1.85;;;;;;;;;;5076554;28;20078;-60
2021/06/15 12:18:11;;;;;;;3.00;2.22;;;;;;;;;;5076195;28;20513;-60
2021/06/15 12:20:39;;;;;;;2.78;2.22;;;;;;;;;;5076598;28;20056;-60
2021/06/15 12:23:23;;;;;;;3.92;2.33;;;;;;;;;;5076403;28;20031;-61
2021/06/15 12:25:50;;;;;;;3.63;1.90;;;;;;;;;;5074759;28;20036;-60
2021/06/15 12:28:16;;;;;;;3.13;2.47;;;;;;;;;;5076523;28;20009;-60
2021/06/15 12:30:44;;;;;;;3.88;2.28;;;;;;;;;;5076146;28;20866;-60
2021/06/15 12:33:13;;;;;;;2.63;2.35;;;;;;;;;;5076456;28;20087;-61
2021/06/15 12:35:38;;;;;;;2.75;1.95;;;;;;;;;;5076161;28;20029;-61
2021/06/15 12:38:14;;;;;;;2.55;2.00;;;;;;;;;;5074960;28;20027;-61
2021/06/15 12:40:41;;;;;;;2.38;1.70;;;;;;;;;;5076446;28;20090;-60
2021/06/15 12:43:07;;;;;;;2.35;1.85;;;;;;;;;;5076056;28;20031;-60
2021/06/15 12:45:38;;;;;;;1.88;1.75;;;;;;;;;;5076012;28;20040;-61
2021/06/15 12:48:24;;;;;;;2.33;2.20;;;;;;;;;;5074758;28;20033;-60
2021/06/15 12:51:06;;;;;;;2.28;2.03;;;;;;;;;;5075894;28;20428;-59
2021/06/15 12:53:33;;;;;;;2.25;2.15;;;;;;;;;;5075752;28;20115;-60
2021/06/15 12:56:10;;;;;;;2.85;1.85;;;;;;;;;;5075904;28;20025;-60
2021/06/15 12:58:36;;;;;;;2.85;2.08;;;;;;;;;;5074608;28;20170;-59
2021/06/15 13:01:10;;;;;;;1.73;1.63;;;;;;;;;;5075964;28;20095;-60
2021/06/15 13:03:37;;;;;;;2.97;2.25;;;;;;;;;;5075051;28;20141;-60
2021/06/15 13:06:12;;;;;;;5.63;2.83;;;;;;;;;;5075902;28;20021;-60
2021/06/15 13:08:39;;;;;;;3.55;2.58;;;;;;;;;;5076000;28;20093;-60
2021/06/15 13:11:23;;;;;;;4.85;2.92;;;;;;;;;;5075969;28;20009;-60
2021/06/15 13:13:52;;;;;;;4.80;2.55;;;;;;;;;;5075279;28;20029;-60
2021/06/15 13:16:19;;;;;;;2.55;2.35;;;;;;;;;;5075084;28;20016;-60
2021/06/15 13:19:02;;;;;;;2.30;2.10;;;;;;;;;;5075006;28;20028;-60
2021/06/15 13:21:46;;;;;;;3.38;2.40;;;;;;;;;;5075062;28;20035;-60
2021/06/15 13:24:13;;;;;;;2.42;2.22;;;;;;;;;;5074872;28;20068;-60
2021/06/15 13:26:39;;;;;;;2.40;2.20;;;;;;;;;;5074952;28;20575;-60
2021/06/15 13:29:04;;;;;;;2.60;2.35;;;;;;;;;;5074950;28;20169;-60
2021/06/15 13:31:31;;;;;;;3.30;2.10;;;;;;;;;;5075231;28;20061;-60
2021/06/15 13:34:10;;;;;;;4.00;2.53;;;;;;;;;;5075339;28;20348;-61
2021/06/15 13:36:36;;;;;;;2.72;2.20;;;;;;;;;;5075434;28;20032;-61
2021/06/15 13:39:12;;;;;;;4.40;2.67;;;;;;;;;;5075225;28;20017;-60
2021/06/15 13:41:38;;;;;;;3.08;2.53;;;;;;;;;;5074549;28;20043;-61
2021/06/15 13:44:04;;;;;;;3.17;2.40;;;;;;;;;;5075019;28;20020;-60
2021/06/15 13:46:30;;;;;;;3.05;2.28;;;;;;;;;;5074852;28;20032;-61
2021/06/15 13:49:00;;;;;;;2.42;2.22;;;;;;;;;;5074959;28;20066;-61
2021/06/15 13:51:26;;;;;;;2.60;2.28;;;;;;;;;;5074704;28;20032;-61
2021/06/15 13:53:53;;;;;;;6.03;4.10;;;;;;;;;;5074677;28;20532;-61
2021/06/15 13:56:19;;;;;;;7.72;3.63;;;;;;;;;;5074831;28;20382;-61
2021/06/15 13:58:45;;;;;;;4.55;3.25;;;;;;;;;;5074624;28;20027;-61
2021/06/15 14:01:11;;;;;;;6.82;3.33;;;;;;;;;;5074551;28;20116;-61
2021/06/15 14:03:38;;;;;;;4.75;3.25;;;;;;;;;;5073968;28;20064;-61
2021/06/15 14:06:04;;;;;;;5.00;3.17;;;;;;;;;;5074469;28;20031;-61
2021/06/15 14:08:31;;;;;;;6.90;4.10;;;;;;;;;;5073257;28;20351;-61
2021/06/15 14:10:57;;;;;;;6.20;3.60;;;;;;;;;;5074673;28;20430;-60
2021/06/15 14:13:23;;;;;;;5.60;3.78;;;;;;;;;;5074412;28;20112;-60
2021/06/15 14:15:49;;;;;;;5.63;3.80;;;;;;;;;;5074571;28;20036;-60
2021/06/15 14:18:14;;;;;;;5.15;3.20;;;;;;;;;;5068854;28;20111;-60
2021/06/15 14:20:43;;;;;;;6.03;3.63;;;;;;;;;;5072901;28;20063;-60
2021/06/15 14:23:09;;;;;;;4.93;3.33;;;;;;;;;;5072835;28;20024;-61
2021/06/15 14:25:35;;;;;;;5.20;3.13;;;;;;;;;;5072397;28;20047;-60
2021/06/15 14:28:01;;;;;;;5.55;3.60;;;;;;;;;;5074575;28;20048;-60
2021/06/15 14:30:28;;;;;;;5.30;3.63;;;;;;;;;;5074065;28;20028;-60
2021/06/15 14:32:54;;;;;;;4.03;3.10;;;;;;;;;;5074018;28;20085;-59
2021/06/15 14:35:20;;;;;;;4.28;3.53;;;;;;;;;;5073578;28;20063;-60
2021/06/15 14:37:46;;;;;;;5.38;3.65;;;;;;;;;;5073869;28;20024;-59
2021/06/15 14:40:13;;;;;;;9.15;4.20;;;;;;;;;;5073754;28;20040;-60
2021/06/15 14:42:39;;;;;;;6.75;3.97;;;;;;;;;;5073144;28;20024;-60
2021/06/15 14:45:05;;;;;;;5.05;3.28;;;;;;;;;;5073084;28;20064;-60
2021/06/15 14:47:30;;;;;;;6.05;3.53;;;;;;;;;;5073504;28;20085;-60
2021/06/15 14:49:56;;;;;;;7.57;4.50;;;;;;;;;;5073752;28;20348;-60
2021/06/15 14:52:23;;;;;;;6.85;4.15;;;;;;;;;;5073899;28;20020;-61
2021/06/15 14:54:48;;;;;;;6.05;3.90;;;;;;;;;;5073537;28;20544;-61
2021/06/15 14:57:15;;;;;;;6.43;3.90;;;;;;;;;;5073599;28;20032;-59
2021/06/15 14:59:40;;;;;;;4.22;3.33;;;;;;;;;;5073585;28;20558;-60